Wroughton, United Kingdom
Current Conditions -  °F | °C
As of 6:58 PM on Friday 21 Nov 2014 (Local Time) from EGVA Reporting Station
Haze Haze  
Wind Chill: 40°   Ceiling: 600
Heat Index: 45°   Visibility: 4mi
Dew Point: 45°   Wind: 10mph
Humidity: 98%   Direction: 90°E
Pressure: 29.9"   Gusts: NA
Location:  51.52°N, 1.8°W
Report Text: EGVA 211858Z AUTO 09009KT 6000 R27/1400 BR OVC006 07/07 A2990 RMK AO2 RAE1814DZB1814E1816 SLP131 P0000 T00740071 $
Loading
Personal Weather Stations






























Interactive Weather Map New forecast layout! Learn more

10-Day Weather Forecast

Advertisements
Track Severe Weather on mobile